AirNav   ProFlight Series 2 Aviation Headset
 
 829 users online  

FD03 Five Oaks Estate Airport
Crestview, Florida, USA

GOING TO CRESTVIEW?


FAA INFORMATION EFFECTIVE 18 JUNE 2020

Location

FAA Identifier: FD03
Lat/Long: 30-48-10.8000N 086-26-11.3200W
30-48.180000N 086-26.188667W
30.8030000,-86.4364778
(estimated)
Elevation: 200 ft. / 61 m (estimated)
Variation: 00E (1985)
From city: 7 miles NE of CRESTVIEW, FL
Time zone: UTC -5 (UTC -6 during Standard Time)
Zip code: 32539

Airport Operations

Airport use: Private use. Permission required prior to landing
Activation date: 11/1983
Control tower: no
ARTCC: JACKSONVILLE CENTER
FSS: GAINESVILLE FLIGHT SERVICE STATION
Attendance: UNATNDD
Wind indicator: yes
Segmented circle: no

Airport Communications

WX ASOS at CEW (5 nm W): 119.275 (850-682-1237)
WX AWOS-3P at 54J (15 nm E): 118.725 (850-892-0147)

Nearby radio navigation aids

VOR radial/distance  VOR name  Freq  Var
CEWr093/12.6CRESTVIEW VORTAC115.9003E

 
NDB name  Hdg/Dist  Freq  Var  ID
KOBRA124/6.020104WCE -.-. .
JUDD186/30.226402WJUY .--- ..- -.--
BOLL WEEVIL219/39.835203WBVG -... ...- --.

Airport Services

Runway Information

Runway 7/25

Dimensions: 1800 x 50 ft. / 549 x 15 m
Surface: turf
RUNWAY 7  RUNWAY 25
Latitude: 30-48.143833N30-48.216167N
Longitude: 086-26.355333W086-26.022000W
Elevation: 199.0 ft.200.0 ft.
Traffic pattern: leftleft
Obstructions: 50 ft. trees, 500 ft. from runway50 ft. trees, 1600 ft. from runway

Airport Ownership and Management from official FAA records

Ownership: Privately-owned
Owner: RONALD R. & RITA C. SCOTT
4274 POVERTY CREEK ROAD
CRESTVIEW, FL 32539
Phone 850-689-0270
Manager: RONALD R. SCOTT
4274 POVERTY CREEK ROAD
CRESTVIEW, FL 32539
Phone 850-689-0270

Airport Operational Statistics

Aircraft based on the field: 1
Single engine airplanes: 1
    

Additional Remarks

A30 VARIABLE SLOPE TO RWY--CTR 18 FEET HIGHER THAN WEST END.
FOR CD CTC EGLIN APCH 850-882-9152 OR 850-882-9151.

Instrument Procedures

There are no published instrument procedures at FD03.

Some nearby airports with instrument procedures:

KCEW - Bob Sikes Airport (5 nm W)
KEGI - Duke Field (Eglin AF Aux Nr 3) Airport (10 nm SW)
54J - DeFuniak Springs Airport (15 nm E)
0J4 - Florala Municipal Airport (16 nm NE)
KVPS - Eglin Air Force Base/Destin-Fort Walton Beach Airport (20 nm S)
 
Loc | Ops | Rwys | IFR | FBO | Links
Com | Nav | Svcs | Stats | Notes

Continental Services
AirBoss

 
Area around FD03 (Five Oaks Estate Airport)
 
Road maps at: MapQuest Bing Google
 
Aerial photo
No photo
 
Sectional chart

 
Airport distance calculator
Flying to Five Oaks Estate Airport? Find the distance to fly.

From to FD03

Sunrise and sunset
Times for 05-Jul-2020
 Local
(UTC-5)
 Zulu
(UTC)
Morning civil twilight05:2210:22
Sunrise05:4910:49
Sunset19:5100:51
Evening civil twilight20:1901:19

Current date and time
Zulu (UTC)  05-Jul-2020 14:03:45
Local (UTC-5)  05-Jul-2020 09:03:45
 
METAR
KCEW 
5nm SW 
051353Z AUTO 17005KT 10SM FEW016 SCT023 27/23 A2995 RMK AO2 SLP136 T02720228
KEGI 
11nm S 
051356Z AUTO 18009KT 10SM FEW160 25/22 A2993 RMK AO2 SLP134 T02530222 $
K54J 
15nm E 
051355Z AUTO 18004KT 10SM BKN018 OVC024 26/22 A2995 RMK AO2 LTG DSNT SE AND S T02560221
TAF
NOTAMs
Click for the latest NOTAMs
NOTAMs are issued by the DoD/FAA and will open in a separate window not controlled by AirNav.

 

 
 

Would you like to see your business listed on this page?

 If your business provides an interesting product or service to pilots, flight crews, aircraft, or users of the Five Oaks Estate Airport, you should consider listing it here.  To start the listing process, click on the button below
 
Add a business
 

Other Pages about Five Oaks Estate Airport

Update a link
 
Copyright © AirNav, LLC. All rights reserved. Privacy Policy  Contact